createdAt,value
2019-04-04T00:00:14.362Z,23.02
2019-04-04T00:02:46.014Z,27.98
2019-04-04T00:05:16.204Z,29.40
2019-04-04T00:07:46.626Z,25.48
2019-04-04T00:10:16.923Z,25.50
2019-04-04T00:12:46.988Z,27.00
2019-04-04T00:15:17.021Z,23.15
2019-04-04T00:17:47.306Z,24.40
2019-04-04T00:20:17.627Z,25.12
2019-04-04T00:22:47.692Z,26.12
2019-04-04T00:25:17.957Z,26.45
2019-04-04T00:27:47.947Z,24.32
2019-04-04T00:30:18.563Z,24.75
2019-04-04T00:32:49.192Z,27.20
2019-04-04T00:35:19.493Z,24.60
2019-04-04T00:37:50.579Z,24.90
2019-04-04T00:40:21.511Z,26.77
2019-04-04T00:42:51.711Z,25.15
2019-04-04T00:45:22.121Z,26.07
2019-04-04T00:47:52.268Z,24.52
2019-04-04T00:50:22.512Z,24.92
2019-04-04T00:52:52.696Z,28.47
2019-04-04T00:55:22.925Z,25.92
2019-04-04T00:57:53.099Z,23.98
2019-04-04T01:00:24.025Z,25.88
2019-04-04T01:02:54.715Z,22.02
2019-04-04T01:05:26.296Z,24.18
2019-04-04T01:07:56.224Z,21.80
2019-04-04T01:10:26.654Z,25.35
2019-04-04T01:12:56.552Z,26.15
2019-04-04T01:15:26.747Z,24.82
2019-04-04T01:17:57.104Z,24.05
2019-04-04T01:20:27.256Z,24.72
2019-04-04T01:22:57.596Z,26.15
2019-04-04T01:25:27.752Z,22.22
2019-04-04T01:27:58.001Z,26.90
2019-04-04T01:30:27.977Z,24.47
2019-04-04T01:32:58.222Z,25.72
2019-04-04T01:35:28.221Z,28.02
2019-04-04T01:38:00.250Z,28.00
2019-04-04T01:40:32.872Z,24.18
2019-04-04T01:43:02.531Z,26.52
2019-04-04T01:45:32.605Z,23.90
2019-04-04T01:48:02.764Z,27.50
2019-04-04T01:50:32.808Z,24.32
2019-04-04T01:53:03.208Z,34.73
2019-04-04T01:55:34.950Z,27.10
2019-04-04T01:58:05.361Z,29.48
2019-04-04T02:00:35.400Z,26.02
2019-04-04T02:03:05.667Z,26.85
2019-04-04T02:05:35.815Z,28.85
2019-04-04T02:08:05.853Z,24.30
2019-04-04T02:10:36.091Z,24.18
2019-04-04T02:13:06.017Z,27.65
2019-04-04T02:15:36.327Z,27.22
2019-04-04T02:18:06.298Z,31.60
2019-04-04T02:20:36.719Z,25.50
2019-04-04T02:23:06.671Z,25.48
2019-04-04T02:25:36.816Z,27.45
2019-04-04T02:28:08.577Z,26.75
2019-04-04T02:30:38.644Z,24.25
2019-04-04T02:33:08.535Z,28.57
2019-04-04T02:35:42.785Z,25.57
2019-04-04T02:38:11.841Z,28.32
2019-04-04T02:40:42.352Z,31.17
2019-04-04T02:43:12.506Z,25.62
2019-04-04T02:45:42.822Z,27.77
2019-04-04T02:48:12.908Z,22.32
2019-04-04T02:50:43.287Z,27.82
2019-04-04T02:53:13.521Z,25.12
2019-04-04T02:55:43.890Z,27.00
2019-04-04T02:58:15.041Z,31.25
2019-04-04T03:00:45.407Z,29.82
2019-04-04T03:03:15.898Z,27.98
2019-04-04T03:05:50.827Z,24.23
2019-04-04T03:08:18.215Z,26.68
2019-04-04T03:10:49.452Z,32.35
2019-04-04T03:13:19.796Z,27.37
2019-04-04T03:15:50.148Z,31.70
2019-04-04T03:18:20.466Z,31.37
2019-04-04T03:20:50.924Z,28.67
2019-04-04T03:23:21.999Z,27.57
2019-04-04T03:25:52.174Z,28.38
2019-04-04T03:28:22.097Z,24.12
2019-04-04T03:31:01.347Z,39.08
2019-04-04T03:33:29.505Z,30.52
2019-04-04T03:35:57.612Z,26.25
2019-04-04T03:38:28.887Z,30.23
2019-04-04T03:40:59.021Z,35.38
2019-04-04T03:43:30.115Z,27.17
2019-04-04T03:46:01.805Z,29.10
2019-04-04T03:48:32.053Z,31.02
2019-04-04T03:51:04.898Z,30.00
2019-04-04T03:53:34.307Z,26.77
2019-04-04T03:56:06.105Z,33.60
2019-04-04T03:58:36.220Z,27.62
2019-04-04T04:01:06.721Z,25.65
2019-04-04T04:03:36.636Z,28.12
2019-04-04T04:06:09.032Z,33.60
2019-04-04T04:08:38.723Z,33.98
2019-04-04T04:11:08.859Z,31.10
2019-04-04T04:13:38.727Z,32.00
2019-04-04T04:16:09.292Z,30.35
2019-04-04T04:18:39.455Z,30.92
2019-04-04T04:21:10.884Z,31.60
2019-04-04T04:23:41.196Z,33.02
2019-04-04T04:26:11.447Z,32.13
2019-04-04T04:28:41.829Z,30.23
2019-04-04T04:31:15.371Z,28.67
2019-04-04T04:33:46.575Z,32.25
2019-04-04T04:36:16.846Z,28.32
2019-04-04T04:38:48.088Z,31.52
2019-04-04T04:41:20.443Z,27.70
2019-04-04T04:43:49.787Z,26.12
2019-04-04T04:46:19.758Z,27.25
2019-04-04T04:48:49.757Z,33.40
2019-04-04T04:51:20.056Z,29.63
2019-04-04T04:53:50.673Z,25.70
2019-04-04T04:56:21.291Z,33.20
2019-04-04T04:58:55.350Z,30.60
2019-04-04T05:01:24.719Z,32.70
2019-04-04T05:03:56.588Z,32.35
2019-04-04T05:06:26.903Z,34.55
2019-04-04T05:08:56.991Z,58.00
2019-04-04T05:11:27.077Z,44.30
2019-04-04T05:13:58.147Z,38.88
2019-04-04T05:16:29.129Z,26.02
2019-04-04T05:18:59.403Z,30.95
2019-04-04T05:21:29.479Z,31.40
2019-04-04T05:23:59.742Z,28.62
2019-04-04T05:26:29.993Z,32.58
2019-04-04T05:29:00.070Z,43.85
2019-04-04T05:31:30.361Z,32.15
2019-04-04T05:34:00.294Z,28.83
2019-04-04T05:36:30.557Z,31.35
2019-04-04T05:39:04.147Z,27.77
2019-04-04T05:41:37.218Z,48.70
2019-04-04T05:44:09.024Z,43.73
2019-04-04T05:46:38.288Z,43.42
2019-04-04T05:49:08.583Z,41.00
2019-04-04T05:51:39.072Z,27.05
2019-04-04T05:54:09.133Z,29.65
2019-04-04T05:56:39.379Z,32.30
2019-04-04T05:59:09.337Z,30.45
2019-04-04T06:01:39.693Z,30.15
2019-04-04T06:07:44.603Z,28.25
2019-04-04T06:16:35.013Z,26.77
2019-04-04T06:19:59.554Z,27.55
2019-04-04T06:25:23.859Z,28.15
2019-04-04T06:28:09.918Z,33.48
2019-04-04T06:30:47.958Z,56.92
2019-04-04T06:33:24.437Z,90.55
2019-04-04T06:35:56.652Z,45.38
2019-04-04T06:38:27.081Z,28.55
2019-04-04T06:41:03.228Z,53.65
2019-04-04T06:43:45.742Z,39.15
2019-04-04T06:49:19.694Z,41.20
2019-04-04T06:52:23.442Z,30.90
2019-04-04T06:54:55.284Z,26.93
2019-04-04T06:57:51.369Z,32.88
2019-04-04T07:06:58.948Z,26.17
2019-04-04T07:09:48.260Z,27.87
2019-04-04T07:12:29.716Z,32.60
2019-04-04T07:18:40.958Z,30.27
2019-04-04T07:21:23.185Z,25.68
2019-04-04T07:24:10.834Z,29.05
2019-04-04T07:29:48.431Z,24.87
2019-04-04T07:32:44.764Z,50.15
2019-04-04T07:35:28.050Z,29.25
2019-04-04T07:41:14.785Z,25.20
2019-04-04T07:43:51.616Z,37.28
2019-04-04T07:46:45.366Z,32.80
2019-04-04T07:49:41.521Z,28.30
2019-04-04T07:52:37.648Z,39.58
2019-04-04T08:04:57.487Z,49.73
2019-04-04T08:07:41.924Z,27.62
2019-04-04T08:10:23.192Z,25.20
2019-04-04T08:15:58.043Z,32.42
2019-04-04T08:18:40.448Z,31.82
2019-04-04T08:21:50.055Z,27.45
2019-04-04T08:24:35.860Z,41.98
2019-04-04T08:31:09.713Z,40.48
2019-04-04T08:33:22.363Z,55.92
2019-04-04T08:36:20.216Z,34.53
2019-04-04T08:39:07.123Z,30.65
2019-04-04T08:41:56.243Z,39.78
2019-04-04T08:44:44.210Z,30.05
2019-04-04T08:53:40.319Z,33.33
2019-04-04T09:05:55.380Z,24.60
2019-04-04T09:15:11.798Z,26.82
2019-04-04T09:18:05.584Z,27.00
2019-04-04T09:20:57.030Z,28.38
2019-04-04T09:27:31.450Z,32.42
2019-04-04T09:32:34.285Z,56.37
2019-04-04T09:33:24.284Z,31.42
2019-04-04T09:42:19.148Z,32.23
2019-04-04T09:45:31.417Z,30.52
2019-04-04T09:48:40.204Z,27.37
2019-04-04T09:51:09.259Z,27.32
2019-04-04T09:54:19.260Z,26.02
2019-04-04T10:00:43.112Z,38.38
2019-04-04T10:04:00.220Z,28.65
2019-04-04T10:07:42.498Z,25.50
2019-04-04T10:10:20.846Z,57.90
2019-04-04T10:13:07.135Z,27.82
2019-04-04T10:42:04.144Z,26.23
2019-04-04T10:48:06.228Z,26.95
2019-04-04T11:06:57.797Z,30.97
2019-04-04T11:09:41.835Z,29.32
2019-04-04T11:12:28.919Z,31.15
2019-04-04T11:15:07.280Z,30.82
2019-04-04T11:18:00.885Z,30.85
2019-04-04T11:20:47.684Z,38.45
2019-04-04T11:23:26.918Z,46.23
2019-04-04T11:26:12.238Z,24.05
2019-04-04T11:31:40.565Z,31.55
2019-04-04T11:34:29.757Z,27.35
2019-04-04T11:37:07.723Z,35.80
2019-04-04T11:42:53.850Z,30.65
2019-04-04T11:45:46.600Z,30.12
2019-04-04T11:48:32.758Z,27.67
2019-04-04T11:51:35.237Z,28.87
2019-04-04T11:54:18.640Z,43.52
2019-04-04T12:13:45.408Z,30.52
2019-04-04T12:28:06.178Z,30.75
2019-04-04T12:33:36.063Z,29.70
2019-04-04T12:36:34.744Z,27.90
2019-04-04T12:39:44.355Z,25.77
2019-04-04T12:45:58.136Z,27.30
2019-04-04T12:48:52.498Z,27.98
2019-04-04T12:51:28.443Z,23.85
2019-04-04T12:54:20.928Z,22.77
2019-04-04T13:00:47.619Z,26.75
2019-04-04T13:03:40.821Z,31.65
2019-04-04T13:06:19.095Z,29.23
2019-04-04T13:09:32.682Z,26.57
2019-04-04T13:12:03.568Z,23.92
2019-04-04T13:14:47.761Z,28.55
2019-04-04T13:21:10.374Z,89.90
2019-04-04T13:23:26.784Z,28.32
2019-04-04T13:26:24.434Z,32.88
2019-04-04T13:32:07.523Z,28.30
2019-04-04T13:34:59.594Z,60.45
2019-04-04T13:44:30.256Z,40.58
2019-04-04T13:46:53.852Z,25.95
2019-04-04T13:49:34.952Z,42.50
2019-04-04T13:52:43.258Z,31.15
2019-04-04T13:58:02.935Z,38.00
2019-04-04T14:00:40.460Z,46.00
2019-04-04T14:03:26.545Z,25.50
2019-04-04T14:06:05.624Z,38.25
2019-04-04T14:08:42.117Z,34.88
2019-04-04T14:11:14.297Z,29.00
2019-04-04T14:13:51.701Z,33.18
2019-04-04T14:16:37.896Z,25.12
2019-04-04T14:19:33.664Z,29.02
2019-04-04T14:22:09.176Z,36.40
2019-04-04T14:24:42.957Z,30.52
2019-04-04T14:27:20.732Z,26.57
2019-04-04T14:30:29.258Z,27.45
2019-04-04T14:33:07.414Z,27.93
2019-04-04T14:35:37.897Z,35.23
2019-04-04T14:38:09.442Z,41.35
2019-04-04T14:40:45.705Z,36.85
2019-04-04T14:43:25.584Z,35.90
2019-04-04T14:45:57.174Z,32.60
2019-04-04T14:48:34.317Z,31.35
2019-04-04T14:51:10.427Z,42.30
2019-04-04T14:53:55.895Z,60.58
2019-04-04T14:56:29.151Z,36.50
2019-04-04T15:01:54.723Z,37.53
2019-04-04T15:04:32.329Z,30.97
2019-04-04T15:07:08.135Z,38.08
2019-04-04T15:09:55.502Z,44.90
2019-04-04T15:12:31.066Z,35.58
2019-04-04T15:15:05.506Z,35.25
2019-04-04T15:17:35.297Z,32.03
2019-04-04T15:20:16.487Z,44.25
2019-04-04T15:22:51.331Z,45.50
2019-04-04T15:25:28.560Z,45.85
2019-04-04T15:28:00.838Z,83.17
2019-04-04T15:33:02.811Z,38.78
2019-04-04T15:35:39.306Z,38.42
2019-04-04T15:38:12.683Z,33.08
2019-04-04T15:40:54.719Z,37.35
2019-04-04T15:43:28.502Z,40.78
2019-04-04T15:46:03.863Z,29.70
2019-04-04T15:48:37.057Z,35.83
2019-04-04T15:51:10.386Z,50.35
2019-04-04T15:53:47.146Z,36.33
2019-04-04T15:56:19.620Z,49.95
2019-04-04T15:58:55.418Z,38.00
2019-04-04T16:01:26.240Z,45.90
2019-04-04T16:04:18.537Z,75.17
2019-04-04T16:07:35.934Z,71.55
2019-04-04T16:10:14.165Z,44.75
2019-04-04T16:12:49.689Z,28.60
2019-04-04T16:15:29.265Z,36.03
2019-04-04T16:18:09.134Z,38.80
2019-04-04T16:26:52.334Z,44.90
2019-04-04T16:29:33.052Z,43.48
2019-04-04T16:32:13.855Z,46.55
2019-04-04T16:34:55.644Z,40.78
2019-04-04T16:37:31.092Z,38.15
2019-04-04T16:40:37.170Z,40.50
2019-04-04T16:43:39.402Z,43.85
2019-04-04T16:46:02.716Z,41.92
2019-04-04T16:49:00.619Z,40.30
2019-04-04T16:51:49.519Z,33.75
2019-04-04T16:54:20.152Z,80.28
2019-04-04T16:56:50.264Z,40.83
2019-04-04T16:59:20.324Z,41.02
2019-04-04T17:01:50.420Z,41.83
2019-04-04T17:04:20.334Z,44.70
2019-04-04T17:06:50.641Z,47.78
2019-04-04T17:09:22.458Z,51.50
2019-04-04T17:11:52.545Z,52.27
2019-04-04T17:14:22.632Z,43.78
2019-04-04T17:16:52.613Z,48.05
2019-04-04T17:19:22.724Z,48.35
2019-04-04T17:21:52.658Z,45.35
2019-04-04T17:24:22.642Z,57.95
2019-04-04T17:26:52.879Z,50.63
2019-04-04T17:29:23.101Z,55.15
2019-04-04T17:31:53.813Z,53.60
2019-04-04T17:34:24.257Z,51.48
2019-04-04T17:36:54.474Z,41.58
2019-04-04T17:39:24.685Z,40.50
2019-04-04T17:41:54.870Z,42.85
2019-04-04T17:44:25.083Z,42.38
2019-04-04T17:46:55.096Z,35.48
2019-04-04T17:49:25.375Z,46.63
2019-04-04T17:51:57.118Z,36.00
2019-04-04T17:54:27.228Z,57.35
2019-04-04T17:56:57.251Z,89.90
2019-04-04T17:59:30.143Z,69.70
2019-04-04T18:01:59.028Z,81.63
2019-04-04T18:04:29.225Z,104.45
2019-04-04T18:06:59.519Z,83.33
2019-04-04T18:09:32.032Z,56.45
2019-04-04T18:14:31.335Z,84.52
2019-04-04T18:17:01.315Z,54.05
2019-04-04T18:19:32.523Z,54.25
2019-04-04T18:22:02.857Z,76.35
2019-04-04T18:24:33.473Z,72.53
2019-04-04T18:27:06.453Z,65.97
2019-04-04T18:29:36.452Z,54.13
2019-04-04T18:32:06.332Z,72.22
2019-04-04T18:34:36.333Z,67.65
2019-04-04T18:37:06.823Z,64.50
2019-04-04T18:39:36.943Z,56.83
2019-04-04T18:42:07.051Z,47.03
2019-04-04T18:44:37.105Z,57.85
2019-04-04T18:47:07.459Z,48.02
2019-04-04T18:49:37.773Z,50.30
2019-04-04T18:52:08.784Z,38.63
2019-04-04T18:54:39.013Z,49.33
2019-04-04T18:57:09.097Z,66.57
2019-04-04T18:59:39.739Z,69.85
2019-04-04T19:02:10.973Z,43.52
2019-04-04T19:04:40.935Z,45.28
2019-04-04T19:07:11.696Z,49.93
2019-04-04T19:09:42.048Z,33.90
2019-04-04T19:12:13.431Z,38.67
2019-04-04T19:14:43.357Z,37.42
2019-04-04T19:17:13.444Z,42.33
2019-04-04T19:19:43.495Z,44.25
2019-04-04T19:22:13.487Z,45.28
2019-04-04T19:24:43.988Z,37.03
2019-04-04T19:27:14.001Z,43.38
2019-04-04T19:29:44.524Z,44.67
2019-04-04T19:32:14.775Z,43.78
2019-04-04T19:34:45.110Z,37.23
2019-04-04T19:37:15.366Z,43.95
2019-04-04T19:39:45.574Z,37.33
2019-04-04T19:42:16.052Z,34.80
2019-04-04T19:44:53.678Z,41.77
2019-04-04T19:47:19.881Z,33.53
2019-04-04T19:49:51.446Z,33.08
2019-04-04T19:52:21.667Z,43.60
2019-04-04T19:54:51.812Z,35.85
2019-04-04T19:57:21.697Z,39.38
2019-04-04T19:59:51.940Z,41.18
2019-04-04T20:02:21.846Z,37.38
2019-04-04T20:04:51.908Z,34.92
2019-04-04T20:07:21.816Z,52.45
2019-04-04T20:12:31.017Z,36.93
2019-04-04T20:15:01.344Z,40.80
2019-04-04T20:17:31.445Z,37.65
2019-04-04T20:20:01.929Z,42.70
2019-04-04T20:22:32.523Z,39.95
2019-04-04T20:25:02.561Z,38.80
2019-04-04T20:27:32.763Z,36.40
2019-04-04T20:30:02.789Z,32.83
2019-04-04T20:32:33.273Z,36.77
2019-04-04T20:35:03.657Z,34.50
2019-04-04T20:37:36.026Z,41.05
2019-04-04T20:40:08.055Z,39.55
2019-04-04T20:42:40.739Z,38.58
2019-04-04T20:45:16.200Z,35.23
2019-04-04T20:47:46.983Z,45.12
2019-04-04T20:50:20.299Z,40.85
2019-04-04T20:52:52.405Z,31.75
2019-04-04T20:55:24.064Z,35.40
2019-04-04T20:57:56.158Z,36.63
2019-04-04T21:00:30.050Z,29.55
2019-04-04T21:03:02.127Z,34.98
2019-04-04T21:05:35.510Z,31.90
2019-04-04T21:08:06.101Z,32.60
2019-04-04T21:10:38.226Z,35.23
2019-04-04T21:13:10.613Z,32.53
2019-04-04T21:15:41.784Z,34.05
2019-04-04T21:18:16.135Z,36.33
2019-04-04T21:20:46.644Z,31.33
2019-04-04T21:23:19.700Z,36.08
2019-04-04T21:25:51.061Z,33.50
2019-04-04T21:28:22.797Z,35.67
2019-04-04T21:30:57.650Z,39.83
2019-04-04T21:33:28.406Z,38.58
2019-04-04T21:36:01.590Z,31.97
2019-04-04T21:38:31.917Z,38.20
2019-04-04T21:41:04.102Z,39.98
2019-04-04T21:43:36.311Z,43.55
2019-04-04T21:46:06.868Z,38.13
2019-04-04T21:51:15.247Z,46.60
2019-04-04T21:53:47.056Z,37.23
2019-04-04T21:56:20.821Z,37.10
2019-04-04T21:58:52.395Z,45.50
2019-04-04T22:01:23.751Z,39.92
2019-04-04T22:03:56.185Z,39.78
2019-04-04T22:06:32.825Z,36.60
2019-04-04T22:09:05.520Z,36.98
2019-04-04T22:11:41.549Z,39.48
2019-04-04T22:14:21.488Z,35.85
2019-04-04T22:16:49.958Z,31.17
2019-04-04T22:19:20.326Z,35.03
2019-04-04T22:21:53.494Z,39.08
2019-04-04T22:24:38.805Z,42.30
2019-04-04T22:33:05.181Z,38.00
2019-04-04T22:35:47.198Z,37.10
2019-04-04T22:38:48.130Z,37.67
2019-04-04T22:41:25.127Z,37.50
2019-04-04T22:44:34.035Z,37.42
2019-04-04T22:46:58.765Z,38.05
2019-04-04T22:49:41.215Z,36.00
2019-04-04T22:52:35.347Z,41.92
2019-04-04T22:55:14.327Z,39.88
2019-04-04T22:58:01.315Z,39.85
2019-04-04T23:03:52.259Z,46.13
2019-04-04T23:06:36.737Z,43.13
2019-04-04T23:09:16.366Z,39.60
2019-04-04T23:11:48.650Z,41.13
2019-04-04T23:17:04.048Z,44.13
2019-04-04T23:19:44.588Z,41.80
2019-04-04T23:22:29.540Z,36.50
2019-04-04T23:25:07.971Z,38.65
2019-04-04T23:27:41.954Z,41.33
2019-04-04T23:30:23.804Z,37.42
2019-04-04T23:32:57.676Z,35.43
2019-04-04T23:35:36.207Z,34.63
2019-04-04T23:38:21.017Z,38.28
2019-04-04T23:41:00.925Z,35.88
2019-04-04T23:43:40.178Z,40.10
